sensor_id;sensor_type;location;lat;lon;timestamp;P1;durP1;ratioP1;P2;durP2;ratioP2
6386;SDS011;3226;42.162;24.756;2022-08-19T00:01:44;18.20;;;16.80;;
6386;SDS011;3226;42.162;24.756;2022-08-19T00:04:19;15.20;;;13.83;;
6386;SDS011;3226;42.162;24.756;2022-08-19T00:06:48;14.00;;;12.70;;
6386;SDS011;3226;42.162;24.756;2022-08-19T00:09:18;13.47;;;12.37;;
6386;SDS011;3226;42.162;24.756;2022-08-19T00:11:47;13.43;;;12.13;;
6386;SDS011;3226;42.162;24.756;2022-08-19T00:14:16;13.40;;;12.20;;
6386;SDS011;3226;42.162;24.756;2022-08-19T00:16:46;13.33;;;12.17;;
6386;SDS011;3226;42.162;24.756;2022-08-19T00:19:15;13.50;;;12.37;;
6386;SDS011;3226;42.162;24.756;2022-08-19T00:21:43;13.40;;;12.30;;
6386;SDS011;3226;42.162;24.756;2022-08-19T00:24:13;15.13;;;11.70;;
6386;SDS011;3226;42.162;24.756;2022-08-19T00:26:42;13.27;;;11.90;;
6386;SDS011;3226;42.162;24.756;2022-08-19T00:29:12;13.73;;;11.70;;
6386;SDS011;3226;42.162;24.756;2022-08-19T00:31:41;13.37;;;12.10;;
6386;SDS011;3226;42.162;24.756;2022-08-19T00:34:11;13.07;;;11.77;;
6386;SDS011;3226;42.162;24.756;2022-08-19T00:36:40;15.23;;;12.07;;
6386;SDS011;3226;42.162;24.756;2022-08-19T00:39:09;12.63;;;11.63;;
6386;SDS011;3226;42.162;24.756;2022-08-19T00:41:38;12.87;;;11.37;;
6386;SDS011;3226;42.162;24.756;2022-08-19T00:44:07;12.33;;;11.07;;
6386;SDS011;3226;42.162;24.756;2022-08-19T00:46:37;13.47;;;11.87;;
6386;SDS011;3226;42.162;24.756;2022-08-19T00:49:09;13.07;;;11.73;;
6386;SDS011;3226;42.162;24.756;2022-08-19T00:51:42;15.37;;;12.37;;
6386;SDS011;3226;42.162;24.756;2022-08-19T00:54:14;12.50;;;11.50;;
6386;SDS011;3226;42.162;24.756;2022-08-19T00:56:43;12.93;;;11.70;;
6386;SDS011;3226;42.162;24.756;2022-08-19T00:59:12;12.17;;;11.17;;
6386;SDS011;3226;42.162;24.756;2022-08-19T01:02:01;12.90;;;11.70;;
6386;SDS011;3226;42.162;24.756;2022-08-19T01:04:30;13.30;;;12.20;;
6386;SDS011;3226;42.162;24.756;2022-08-19T01:06:59;13.07;;;11.77;;
6386;SDS011;3226;42.162;24.756;2022-08-19T01:09:29;12.67;;;11.57;;
6386;SDS011;3226;42.162;24.756;2022-08-19T01:11:58;12.50;;;11.33;;
6386;SDS011;3226;42.162;24.756;2022-08-19T01:14:26;14.10;;;12.60;;
6386;SDS011;3226;42.162;24.756;2022-08-19T01:16:54;13.50;;;12.27;;
6386;SDS011;3226;42.162;24.756;2022-08-19T01:19:24;13.93;;;12.60;;
6386;SDS011;3226;42.162;24.756;2022-08-19T01:22:11;13.80;;;12.50;;
6386;SDS011;3226;42.162;24.756;2022-08-19T01:24:47;13.10;;;11.93;;
6386;SDS011;3226;42.162;24.756;2022-08-19T01:27:17;13.00;;;11.70;;
6386;SDS011;3226;42.162;24.756;2022-08-19T01:29:45;12.73;;;11.70;;
6386;SDS011;3226;42.162;24.756;2022-08-19T01:32:14;13.37;;;12.07;;
6386;SDS011;3226;42.162;24.756;2022-08-19T01:34:59;13.23;;;12.13;;
6386;SDS011;3226;42.162;24.756;2022-08-19T01:37:28;14.67;;;13.37;;
6386;SDS011;3226;42.162;24.756;2022-08-19T01:39:58;13.17;;;12.17;;
6386;SDS011;3226;42.162;24.756;2022-08-19T01:42:26;15.23;;;13.77;;
6386;SDS011;3226;42.162;24.756;2022-08-19T01:44:56;14.10;;;12.93;;
6386;SDS011;3226;42.162;24.756;2022-08-19T01:47:24;15.30;;;14.00;;
6386;SDS011;3226;42.162;24.756;2022-08-19T01:49:52;14.57;;;13.37;;
6386;SDS011;3226;42.162;24.756;2022-08-19T01:52:21;15.47;;;13.93;;
6386;SDS011;3226;42.162;24.756;2022-08-19T01:54:48;18.23;;;15.67;;
6386;SDS011;3226;42.162;24.756;2022-08-19T01:57:18;16.30;;;14.27;;
6386;SDS011;3226;42.162;24.756;2022-08-19T01:59:46;16.60;;;15.17;;
6386;SDS011;3226;42.162;24.756;2022-08-19T02:02:14;17.23;;;15.63;;
6386;SDS011;3226;42.162;24.756;2022-08-19T02:04:42;19.67;;;18.07;;
6386;SDS011;3226;42.162;24.756;2022-08-19T02:07:12;17.77;;;16.20;;
6386;SDS011;3226;42.162;24.756;2022-08-19T02:09:40;17.50;;;15.97;;
6386;SDS011;3226;42.162;24.756;2022-08-19T02:12:08;18.77;;;16.90;;
6386;SDS011;3226;42.162;24.756;2022-08-19T02:14:37;16.07;;;14.70;;
6386;SDS011;3226;42.162;24.756;2022-08-19T02:17:05;18.67;;;16.13;;
6386;SDS011;3226;42.162;24.756;2022-08-19T02:19:33;16.58;;;15.00;;
6386;SDS011;3226;42.162;24.756;2022-08-19T02:22:06;18.50;;;14.40;;
6386;SDS011;3226;42.162;24.756;2022-08-19T02:24:34;17.10;;;15.30;;
6386;SDS011;3226;42.162;24.756;2022-08-19T02:27:02;17.77;;;16.20;;
6386;SDS011;3226;42.162;24.756;2022-08-19T02:29:31;19.60;;;17.70;;
6386;SDS011;3226;42.162;24.756;2022-08-19T02:32:00;17.17;;;15.33;;
6386;SDS011;3226;42.162;24.756;2022-08-19T02:34:28;17.23;;;15.57;;
6386;SDS011;3226;42.162;24.756;2022-08-19T02:36:56;15.50;;;14.13;;
6386;SDS011;3226;42.162;24.756;2022-08-19T02:39:29;16.03;;;14.33;;
6386;SDS011;3226;42.162;24.756;2022-08-19T02:41:56;17.20;;;14.40;;
6386;SDS011;3226;42.162;24.756;2022-08-19T02:44:25;18.20;;;14.07;;
6386;SDS011;3226;42.162;24.756;2022-08-19T02:46:57;18.43;;;14.20;;
6386;SDS011;3226;42.162;24.756;2022-08-19T02:49:26;16.87;;;15.17;;
6386;SDS011;3226;42.162;24.756;2022-08-19T02:52:00;15.37;;;14.07;;
6386;SDS011;3226;42.162;24.756;2022-08-19T02:54:28;15.27;;;13.87;;
6386;SDS011;3226;42.162;24.756;2022-08-19T02:56:56;14.93;;;13.63;;
6386;SDS011;3226;42.162;24.756;2022-08-19T02:59:24;15.80;;;14.27;;
6386;SDS011;3226;42.162;24.756;2022-08-19T03:01:52;20.23;;;13.97;;
6386;SDS011;3226;42.162;24.756;2022-08-19T03:04:21;16.80;;;14.17;;
6386;SDS011;3226;42.162;24.756;2022-08-19T03:06:51;16.40;;;14.13;;
6386;SDS011;3226;42.162;24.756;2022-08-19T03:09:24;18.70;;;14.03;;
6386;SDS011;3226;42.162;24.756;2022-08-19T03:11:52;16.80;;;14.10;;
6386;SDS011;3226;42.162;24.756;2022-08-19T03:14:20;18.37;;;14.50;;
6386;SDS011;3226;42.162;24.756;2022-08-19T03:16:50;19.70;;;15.03;;
6386;SDS011;3226;42.162;24.756;2022-08-19T03:19:19;18.93;;;14.83;;
6386;SDS011;3226;42.162;24.756;2022-08-19T03:21:48;18.80;;;14.90;;
6386;SDS011;3226;42.162;24.756;2022-08-19T03:24:19;17.97;;;14.70;;
6386;SDS011;3226;42.162;24.756;2022-08-19T03:26:48;17.23;;;15.60;;
6386;SDS011;3226;42.162;24.756;2022-08-19T03:29:19;16.27;;;14.77;;
6386;SDS011;3226;42.162;24.756;2022-08-19T03:31:57;16.07;;;14.40;;
6386;SDS011;3226;42.162;24.756;2022-08-19T03:34:28;15.73;;;14.23;;
6386;SDS011;3226;42.162;24.756;2022-08-19T03:37:02;19.83;;;14.43;;
6386;SDS011;3226;42.162;24.756;2022-08-19T03:39:32;16.67;;;14.23;;
6386;SDS011;3226;42.162;24.756;2022-08-19T03:42:00;16.20;;;14.60;;
6386;SDS011;3226;42.162;24.756;2022-08-19T03:44:48;16.43;;;14.83;;
6386;SDS011;3226;42.162;24.756;2022-08-19T03:47:17;16.80;;;14.57;;
6386;SDS011;3226;42.162;24.756;2022-08-19T03:49:45;16.63;;;14.63;;
6386;SDS011;3226;42.162;24.756;2022-08-19T03:52:14;21.10;;;15.13;;
6386;SDS011;3226;42.162;24.756;2022-08-19T03:54:42;15.20;;;13.63;;
6386;SDS011;3226;42.162;24.756;2022-08-19T03:57:11;17.87;;;14.20;;
6386;SDS011;3226;42.162;24.756;2022-08-19T03:59:39;16.47;;;14.80;;
6386;SDS011;3226;42.162;24.756;2022-08-19T04:02:08;17.43;;;14.90;;
6386;SDS011;3226;42.162;24.756;2022-08-19T04:04:38;15.20;;;13.47;;
6386;SDS011;3226;42.162;24.756;2022-08-19T04:07:08;18.60;;;15.73;;
6386;SDS011;3226;42.162;24.756;2022-08-19T04:09:38;19.83;;;15.93;;
6386;SDS011;3226;42.162;24.756;2022-08-19T04:12:07;19.20;;;14.50;;
6386;SDS011;3226;42.162;24.756;2022-08-19T04:14:35;16.97;;;15.20;;
6386;SDS011;3226;42.162;24.756;2022-08-19T04:17:03;19.48;;;15.13;;
6386;SDS011;3226;42.162;24.756;2022-08-19T04:19:32;20.70;;;16.53;;
6386;SDS011;3226;42.162;24.756;2022-08-19T04:22:01;16.97;;;15.37;;
6386;SDS011;3226;42.162;24.756;2022-08-19T04:24:30;16.53;;;14.83;;
6386;SDS011;3226;42.162;24.756;2022-08-19T04:27:00;17.37;;;15.57;;
6386;SDS011;3226;42.162;24.756;2022-08-19T04:29:29;18.83;;;17.10;;
6386;SDS011;3226;42.162;24.756;2022-08-19T04:31:57;19.90;;;14.93;;
6386;SDS011;3226;42.162;24.756;2022-08-19T04:34:34;17.00;;;15.37;;
6386;SDS011;3226;42.162;24.756;2022-08-19T04:37:23;16.13;;;14.53;;
6386;SDS011;3226;42.162;24.756;2022-08-19T04:39:54;18.23;;;15.90;;
6386;SDS011;3226;42.162;24.756;2022-08-19T04:42:41;21.13;;;18.80;;
6386;SDS011;3226;42.162;24.756;2022-08-19T04:45:10;19.40;;;15.67;;
6386;SDS011;3226;42.162;24.756;2022-08-19T04:47:43;16.53;;;14.83;;
6386;SDS011;3226;42.162;24.756;2022-08-19T04:50:23;19.83;;;14.40;;
6386;SDS011;3226;42.162;24.756;2022-08-19T04:52:51;20.07;;;13.93;;
6386;SDS011;3226;42.162;24.756;2022-08-19T04:55:22;18.40;;;14.80;;
6386;SDS011;3226;42.162;24.756;2022-08-19T04:57:53;24.83;;;14.60;;
6386;SDS011;3226;42.162;24.756;2022-08-19T05:00:21;15.40;;;13.73;;
6386;SDS011;3226;42.162;24.756;2022-08-19T05:02:49;19.43;;;13.10;;
6386;SDS011;3226;42.162;24.756;2022-08-19T05:05:18;22.90;;;15.63;;
6386;SDS011;3226;42.162;24.756;2022-08-19T05:07:47;16.73;;;15.00;;
6386;SDS011;3226;42.162;24.756;2022-08-19T05:10:15;16.30;;;13.43;;
6386;SDS011;3226;42.162;24.756;2022-08-19T05:12:43;22.40;;;15.47;;
6386;SDS011;3226;42.162;24.756;2022-08-19T05:15:13;20.97;;;17.43;;
6386;SDS011;3226;42.162;24.756;2022-08-19T05:17:41;30.40;;;24.10;;
6386;SDS011;3226;42.162;24.756;2022-08-19T05:20:29;26.97;;;18.83;;
6386;SDS011;3226;42.162;24.756;2022-08-19T05:23:15;21.87;;;17.77;;
6386;SDS011;3226;42.162;24.756;2022-08-19T05:25:48;20.97;;;14.83;;
6386;SDS011;3226;42.162;24.756;2022-08-19T05:28:16;23.10;;;16.80;;
6386;SDS011;3226;42.162;24.756;2022-08-19T05:30:46;19.83;;;16.43;;
6386;SDS011;3226;42.162;24.756;2022-08-19T05:33:17;15.47;;;13.83;;
6386;SDS011;3226;42.162;24.756;2022-08-19T05:35:45;20.57;;;15.23;;
6386;SDS011;3226;42.162;24.756;2022-08-19T05:38:16;25.10;;;13.80;;
6386;SDS011;3226;42.162;24.756;2022-08-19T05:40:44;15.57;;;14.07;;
6386;SDS011;3226;42.162;24.756;2022-08-19T05:43:14;19.43;;;15.13;;
6386;SDS011;3226;42.162;24.756;2022-08-19T05:45:43;15.33;;;13.63;;
6386;SDS011;3226;42.162;24.756;2022-08-19T05:48:13;16.00;;;14.33;;
6386;SDS011;3226;42.162;24.756;2022-08-19T05:50:41;17.03;;;13.20;;
6386;SDS011;3226;42.162;24.756;2022-08-19T05:53:10;14.33;;;12.90;;
6386;SDS011;3226;42.162;24.756;2022-08-19T05:55:38;18.23;;;12.67;;
6386;SDS011;3226;42.162;24.756;2022-08-19T05:58:06;14.20;;;12.73;;
6386;SDS011;3226;42.162;24.756;2022-08-19T06:00:35;16.70;;;14.70;;
6386;SDS011;3226;42.162;24.756;2022-08-19T06:03:03;20.10;;;15.37;;
6386;SDS011;3226;42.162;24.756;2022-08-19T06:05:40;15.53;;;14.00;;
6386;SDS011;3226;42.162;24.756;2022-08-19T06:08:17;16.07;;;13.40;;
6386;SDS011;3226;42.162;24.756;2022-08-19T06:13:45;16.90;;;14.37;;
6386;SDS011;3226;42.162;24.756;2022-08-19T06:16:15;15.60;;;13.98;;
6386;SDS011;3226;42.162;24.756;2022-08-19T06:18:49;15.37;;;13.87;;
6386;SDS011;3226;42.162;24.756;2022-08-19T06:21:21;16.17;;;12.53;;
6386;SDS011;3226;42.162;24.756;2022-08-19T06:23:53;15.43;;;12.67;;
6386;SDS011;3226;42.162;24.756;2022-08-19T06:26:23;16.77;;;15.17;;
6386;SDS011;3226;42.162;24.756;2022-08-19T06:28:52;14.97;;;13.73;;
6386;SDS011;3226;42.162;24.756;2022-08-19T06:31:22;13.23;;;12.10;;
6386;SDS011;3226;42.162;24.756;2022-08-19T06:33:52;15.47;;;14.07;;
6386;SDS011;3226;42.162;24.756;2022-08-19T06:36:24;13.50;;;12.37;;
6386;SDS011;3226;42.162;24.756;2022-08-19T06:38:58;14.67;;;12.97;;
6386;SDS011;3226;42.162;24.756;2022-08-19T06:41:26;14.23;;;12.77;;
6386;SDS011;3226;42.162;24.756;2022-08-19T06:43:54;14.50;;;13.00;;
6386;SDS011;3226;42.162;24.756;2022-08-19T06:46:23;14.07;;;11.50;;
6386;SDS011;3226;42.162;24.756;2022-08-19T06:48:52;14.20;;;12.17;;
6386;SDS011;3226;42.162;24.756;2022-08-19T06:51:22;13.97;;;12.77;;
6386;SDS011;3226;42.162;24.756;2022-08-19T06:53:57;14.13;;;12.63;;
6386;SDS011;3226;42.162;24.756;2022-08-19T06:56:27;13.47;;;12.13;;
6386;SDS011;3226;42.162;24.756;2022-08-19T06:59:01;13.50;;;12.30;;
6386;SDS011;3226;42.162;24.756;2022-08-19T07:01:33;14.77;;;13.25;;
6386;SDS011;3226;42.162;24.756;2022-08-19T07:04:04;18.87;;;13.23;;
6386;SDS011;3226;42.162;24.756;2022-08-19T07:06:39;13.60;;;11.70;;
6386;SDS011;3226;42.162;24.756;2022-08-19T07:09:10;12.83;;;11.57;;
6386;SDS011;3226;42.162;24.756;2022-08-19T07:11:44;13.63;;;12.43;;
6386;SDS011;3226;42.162;24.756;2022-08-19T07:14:13;15.00;;;12.43;;
6386;SDS011;3226;42.162;24.756;2022-08-19T07:16:45;12.60;;;11.43;;
6386;SDS011;3226;42.162;24.756;2022-08-19T07:19:14;16.30;;;12.70;;
6386;SDS011;3226;42.162;24.756;2022-08-19T07:21:45;13.13;;;11.73;;
6386;SDS011;3226;42.162;24.756;2022-08-19T07:24:15;13.80;;;11.73;;
6386;SDS011;3226;42.162;24.756;2022-08-19T07:26:44;17.60;;;13.40;;
6386;SDS011;3226;42.162;24.756;2022-08-19T07:29:17;14.20;;;12.80;;
6386;SDS011;3226;42.162;24.756;2022-08-19T07:31:53;19.25;;;15.43;;
6386;SDS011;3226;42.162;24.756;2022-08-19T07:34:26;15.77;;;13.33;;
6386;SDS011;3226;42.162;24.756;2022-08-19T07:36:57;14.20;;;11.67;;
6386;SDS011;3226;42.162;24.756;2022-08-19T07:39:27;16.17;;;13.13;;
6386;SDS011;3226;42.162;24.756;2022-08-19T07:41:57;13.10;;;11.97;;
6386;SDS011;3226;42.162;24.756;2022-08-19T07:44:27;13.27;;;12.07;;
6386;SDS011;3226;42.162;24.756;2022-08-19T07:46:56;14.50;;;13.10;;
6386;SDS011;3226;42.162;24.756;2022-08-19T07:49:26;18.03;;;13.70;;
6386;SDS011;3226;42.162;24.756;2022-08-19T07:51:55;14.13;;;12.77;;
6386;SDS011;3226;42.162;24.756;2022-08-19T07:54:28;12.77;;;11.57;;
6386;SDS011;3226;42.162;24.756;2022-08-19T07:56:58;16.87;;;15.07;;
6386;SDS011;3226;42.162;24.756;2022-08-19T07:59:26;16.40;;;14.73;;
6386;SDS011;3226;42.162;24.756;2022-08-19T08:01:55;14.80;;;13.37;;
6386;SDS011;3226;42.162;24.756;2022-08-19T08:04:26;13.70;;;12.27;;
6386;SDS011;3226;42.162;24.756;2022-08-19T08:07:13;15.10;;;13.17;;
6386;SDS011;3226;42.162;24.756;2022-08-19T08:10:00;15.70;;;14.23;;
6386;SDS011;3226;42.162;24.756;2022-08-19T08:12:31;15.63;;;13.93;;
6386;SDS011;3226;42.162;24.756;2022-08-19T08:15:05;15.97;;;12.33;;
6386;SDS011;3226;42.162;24.756;2022-08-19T08:17:38;14.73;;;13.23;;
6386;SDS011;3226;42.162;24.756;2022-08-19T08:20:17;14.73;;;13.33;;
6386;SDS011;3226;42.162;24.756;2022-08-19T08:22:47;15.70;;;13.27;;
6386;SDS011;3226;42.162;24.756;2022-08-19T08:25:33;19.33;;;16.20;;
6386;SDS011;3226;42.162;24.756;2022-08-19T08:28:03;15.07;;;13.33;;
6386;SDS011;3226;42.162;24.756;2022-08-19T08:30:31;12.53;;;11.53;;
6386;SDS011;3226;42.162;24.756;2022-08-19T08:33:02;13.60;;;12.20;;
6386;SDS011;3226;42.162;24.756;2022-08-19T08:35:30;16.43;;;14.83;;
6386;SDS011;3226;42.162;24.756;2022-08-19T08:38:01;16.00;;;14.40;;
6386;SDS011;3226;42.162;24.756;2022-08-19T08:40:32;13.20;;;12.07;;
6386;SDS011;3226;42.162;24.756;2022-08-19T08:43:07;16.90;;;14.90;;
6386;SDS011;3226;42.162;24.756;2022-08-19T08:45:55;14.87;;;13.67;;
6386;SDS011;3226;42.162;24.756;2022-08-19T08:48:30;13.93;;;12.83;;
6386;SDS011;3226;42.162;24.756;2022-08-19T08:51:03;14.00;;;12.70;;
6386;SDS011;3226;42.162;24.756;2022-08-19T08:53:36;15.07;;;13.67;;
6386;SDS011;3226;42.162;24.756;2022-08-19T08:56:08;14.77;;;13.30;;
6386;SDS011;3226;42.162;24.756;2022-08-19T08:58:47;16.20;;;14.50;;
6386;SDS011;3226;42.162;24.756;2022-08-19T09:01:20;19.03;;;17.30;;
6386;SDS011;3226;42.162;24.756;2022-08-19T09:03:56;18.20;;;14.60;;
6386;SDS011;3226;42.162;24.756;2022-08-19T09:06:29;14.33;;;13.03;;
6386;SDS011;3226;42.162;24.756;2022-08-19T09:09:10;15.30;;;13.83;;
6386;SDS011;3226;42.162;24.756;2022-08-19T09:11:46;15.13;;;13.73;;
6386;SDS011;3226;42.162;24.756;2022-08-19T09:14:26;14.30;;;13.10;;
6386;SDS011;3226;42.162;24.756;2022-08-19T09:17:18;14.70;;;13.17;;
6386;SDS011;3226;42.162;24.756;2022-08-19T09:19:55;12.67;;;11.53;;
6386;SDS011;3226;42.162;24.756;2022-08-19T09:22:26;12.70;;;11.47;;
6386;SDS011;3226;42.162;24.756;2022-08-19T09:24:56;12.50;;;11.40;;
6386;SDS011;3226;42.162;24.756;2022-08-19T09:27:25;13.00;;;11.73;;
6386;SDS011;3226;42.162;24.756;2022-08-19T09:30:09;11.90;;;11.00;;
6386;SDS011;3226;42.162;24.756;2022-08-19T09:32:41;12.97;;;11.77;;
6386;SDS011;3226;42.162;24.756;2022-08-19T09:35:10;18.33;;;14.67;;
6386;SDS011;3226;42.162;24.756;2022-08-19T09:37:40;13.20;;;12.10;;
6386;SDS011;3226;42.162;24.756;2022-08-19T09:40:11;14.97;;;13.67;;
6386;SDS011;3226;42.162;24.756;2022-08-19T09:42:41;14.53;;;13.23;;
6386;SDS011;3226;42.162;24.756;2022-08-19T09:45:16;14.50;;;13.15;;
6386;SDS011;3226;42.162;24.756;2022-08-19T09:47:47;15.93;;;14.67;;
6386;SDS011;3226;42.162;24.756;2022-08-19T09:50:20;13.93;;;12.63;;
6386;SDS011;3226;42.162;24.756;2022-08-19T09:52:50;13.03;;;11.83;;
6386;SDS011;3226;42.162;24.756;2022-08-19T09:55:24;13.57;;;12.30;;
6386;SDS011;3226;42.162;24.756;2022-08-19T09:57:59;14.33;;;13.13;;
6386;SDS011;3226;42.162;24.756;2022-08-19T10:00:28;12.77;;;11.53;;
6386;SDS011;3226;42.162;24.756;2022-08-19T10:02:57;13.60;;;11.97;;
6386;SDS011;3226;42.162;24.756;2022-08-19T10:05:26;13.07;;;11.97;;
6386;SDS011;3226;42.162;24.756;2022-08-19T10:08:14;12.53;;;11.53;;
6386;SDS011;3226;42.162;24.756;2022-08-19T10:10:45;13.38;;;12.07;;
6386;SDS011;3226;42.162;24.756;2022-08-19T10:13:16;12.83;;;11.63;;
6386;SDS011;3226;42.162;24.756;2022-08-19T10:15:48;11.80;;;11.00;;
6386;SDS011;3226;42.162;24.756;2022-08-19T10:18:18;12.33;;;11.23;;
6386;SDS011;3226;42.162;24.756;2022-08-19T10:20:48;12.20;;;11.27;;
6386;SDS011;3226;42.162;24.756;2022-08-19T10:23:19;12.80;;;11.67;;
6386;SDS011;3226;42.162;24.756;2022-08-19T10:25:49;12.98;;;11.63;;
6386;SDS011;3226;42.162;24.756;2022-08-19T10:28:19;18.30;;;11.47;;
6386;SDS011;3226;42.162;24.756;2022-08-19T10:30:49;12.33;;;11.47;;
6386;SDS011;3226;42.162;24.756;2022-08-19T10:33:17;12.03;;;11.23;;
6386;SDS011;3226;42.162;24.756;2022-08-19T10:36:07;12.90;;;11.70;;
6386;SDS011;3226;42.162;24.756;2022-08-19T10:38:37;12.90;;;11.80;;
6386;SDS011;3226;42.162;24.756;2022-08-19T10:41:19;12.40;;;11.50;;
6386;SDS011;3226;42.162;24.756;2022-08-19T10:43:50;13.03;;;11.90;;
6386;SDS011;3226;42.162;24.756;2022-08-19T10:46:21;11.77;;;10.77;;
6386;SDS011;3226;42.162;24.756;2022-08-19T10:48:50;13.23;;;11.53;;
6386;SDS011;3226;42.162;24.756;2022-08-19T10:51:19;12.17;;;10.83;;
6386;SDS011;3226;42.162;24.756;2022-08-19T10:54:13;13.20;;;11.93;;
6386;SDS011;3226;42.162;24.756;2022-08-19T10:56:43;13.47;;;12.03;;
6386;SDS011;3226;42.162;24.756;2022-08-19T10:59:20;12.27;;;11.10;;
6386;SDS011;3226;42.162;24.756;2022-08-19T11:01:52;11.47;;;10.57;;
6386;SDS011;3226;42.162;24.756;2022-08-19T11:04:22;12.40;;;11.50;;
6386;SDS011;3226;42.162;24.756;2022-08-19T11:06:55;12.30;;;10.97;;
6386;SDS011;3226;42.162;24.756;2022-08-19T11:09:24;11.40;;;10.60;;
6386;SDS011;3226;42.162;24.756;2022-08-19T11:12:01;12.23;;;11.33;;
6386;SDS011;3226;42.162;24.756;2022-08-19T11:14:31;12.00;;;11.10;;
6386;SDS011;3226;42.162;24.756;2022-08-19T11:17:00;12.17;;;11.07;;
6386;SDS011;3226;42.162;24.756;2022-08-19T11:19:29;14.47;;;13.37;;
6386;SDS011;3226;42.162;24.756;2022-08-19T11:21:57;13.17;;;11.93;;
6386;SDS011;3226;42.162;24.756;2022-08-19T11:24:29;11.07;;;10.10;;
6386;SDS011;3226;42.162;24.756;2022-08-19T11:27:02;10.90;;;10.10;;
6386;SDS011;3226;42.162;24.756;2022-08-19T11:29:33;11.27;;;10.37;;
6386;SDS011;3226;42.162;24.756;2022-08-19T11:32:03;11.50;;;10.27;;
6386;SDS011;3226;42.162;24.756;2022-08-19T11:34:33;12.00;;;10.97;;
6386;SDS011;3226;42.162;24.756;2022-08-19T11:37:02;12.77;;;11.77;;
6386;SDS011;3226;42.162;24.756;2022-08-19T11:39:30;11.93;;;11.03;;
6386;SDS011;3226;42.162;24.756;2022-08-19T11:42:02;11.30;;;10.30;;
6386;SDS011;3226;42.162;24.756;2022-08-19T11:44:51;12.03;;;10.90;;
6386;SDS011;3226;42.162;24.756;2022-08-19T11:47:20;12.63;;;11.67;;
6386;SDS011;3226;42.162;24.756;2022-08-19T11:49:48;13.47;;;12.47;;
6386;SDS011;3226;42.162;24.756;2022-08-19T11:52:16;11.70;;;10.80;;
6386;SDS011;3226;42.162;24.756;2022-08-19T11:54:44;11.97;;;11.07;;
6386;SDS011;3226;42.162;24.756;2022-08-19T11:57:14;13.33;;;12.23;;
6386;SDS011;3226;42.162;24.756;2022-08-19T11:59:47;14.47;;;13.40;;
6386;SDS011;3226;42.162;24.756;2022-08-19T12:02:16;15.43;;;14.00;;
6386;SDS011;3226;42.162;24.756;2022-08-19T12:04:45;13.23;;;12.33;;
6386;SDS011;3226;42.162;24.756;2022-08-19T12:07:13;14.13;;;12.77;;
6386;SDS011;3226;42.162;24.756;2022-08-19T12:09:42;12.27;;;11.37;;
6386;SDS011;3226;42.162;24.756;2022-08-19T12:12:11;12.93;;;11.73;;
6386;SDS011;3226;42.162;24.756;2022-08-19T12:14:40;17.03;;;11.47;;
6386;SDS011;3226;42.162;24.756;2022-08-19T12:17:08;12.90;;;11.73;;
6386;SDS011;3226;42.162;24.756;2022-08-19T12:19:39;12.83;;;11.83;;
6386;SDS011;3226;42.162;24.756;2022-08-19T12:22:07;15.03;;;13.30;;
6386;SDS011;3226;42.162;24.756;2022-08-19T12:24:35;16.40;;;14.90;;
6386;SDS011;3226;42.162;24.756;2022-08-19T12:27:03;14.43;;;13.33;;
6386;SDS011;3226;42.162;24.756;2022-08-19T12:29:38;13.77;;;12.50;;
6386;SDS011;3226;42.162;24.756;2022-08-19T12:32:09;13.20;;;12.20;;
6386;SDS011;3226;42.162;24.756;2022-08-19T12:34:38;15.00;;;13.60;;
6386;SDS011;3226;42.162;24.756;2022-08-19T12:37:06;17.27;;;12.73;;
6386;SDS011;3226;42.162;24.756;2022-08-19T12:39:35;13.87;;;12.80;;
6386;SDS011;3226;42.162;24.756;2022-08-19T12:42:05;13.40;;;12.00;;
6386;SDS011;3226;42.162;24.756;2022-08-19T12:44:35;14.93;;;12.20;;
6386;SDS011;3226;42.162;24.756;2022-08-19T12:47:07;13.10;;;11.63;;
6386;SDS011;3226;42.162;24.756;2022-08-19T12:49:37;14.87;;;13.80;;
6386;SDS011;3226;42.162;24.756;2022-08-19T12:52:22;12.07;;;11.07;;
6386;SDS011;3226;42.162;24.756;2022-08-19T12:54:51;15.07;;;14.00;;
6386;SDS011;3226;42.162;24.756;2022-08-19T12:57:21;18.80;;;17.33;;
6386;SDS011;3226;42.162;24.756;2022-08-19T12:59:59;13.13;;;11.97;;
6386;SDS011;3226;42.162;24.756;2022-08-19T13:02:32;12.93;;;11.57;;
6386;SDS011;3226;42.162;24.756;2022-08-19T13:05:05;12.60;;;11.40;;
6386;SDS011;3226;42.162;24.756;2022-08-19T13:07:35;11.23;;;10.43;;
6386;SDS011;3226;42.162;24.756;2022-08-19T13:10:04;12.57;;;11.47;;
6386;SDS011;3226;42.162;24.756;2022-08-19T13:12:33;11.70;;;10.70;;
6386;SDS011;3226;42.162;24.756;2022-08-19T13:15:01;14.80;;;13.63;;
6386;SDS011;3226;42.162;24.756;2022-08-19T13:17:38;14.95;;;13.80;;
6386;SDS011;3226;42.162;24.756;2022-08-19T13:20:08;19.53;;;18.23;;
6386;SDS011;3226;42.162;24.756;2022-08-19T13:22:40;16.30;;;15.13;;
6386;SDS011;3226;42.162;24.756;2022-08-19T13:25:08;14.57;;;13.10;;
6386;SDS011;3226;42.162;24.756;2022-08-19T13:27:38;12.23;;;11.33;;
6386;SDS011;3226;42.162;24.756;2022-08-19T13:30:09;12.73;;;11.53;;
6386;SDS011;3226;42.162;24.756;2022-08-19T13:32:57;12.27;;;11.30;;
6386;SDS011;3226;42.162;24.756;2022-08-19T13:35:45;14.10;;;12.98;;
6386;SDS011;3226;42.162;24.756;2022-08-19T13:38:15;11.97;;;10.77;;
6386;SDS011;3226;42.162;24.756;2022-08-19T13:40:47;12.87;;;11.63;;
6386;SDS011;3226;42.162;24.756;2022-08-19T13:43:16;11.50;;;10.50;;
6386;SDS011;3226;42.162;24.756;2022-08-19T13:45:49;11.00;;;10.20;;
6386;SDS011;3226;42.162;24.756;2022-08-19T13:48:21;17.13;;;15.73;;
6386;SDS011;3226;42.162;24.756;2022-08-19T13:50:50;12.50;;;11.50;;
6386;SDS011;3226;42.162;24.756;2022-08-19T13:53:18;12.60;;;11.43;;
6386;SDS011;3226;42.162;24.756;2022-08-19T13:55:46;12.80;;;11.67;;
6386;SDS011;3226;42.162;24.756;2022-08-19T13:58:16;13.00;;;12.00;;
6386;SDS011;3226;42.162;24.756;2022-08-19T14:00:45;12.67;;;11.67;;
6386;SDS011;3226;42.162;24.756;2022-08-19T14:03:14;11.93;;;10.73;;
6386;SDS011;3226;42.162;24.756;2022-08-19T14:05:44;11.83;;;10.93;;
6386;SDS011;3226;42.162;24.756;2022-08-19T14:08:13;11.95;;;10.75;;
6386;SDS011;3226;42.162;24.756;2022-08-19T14:10:41;13.50;;;12.30;;
6386;SDS011;3226;42.162;24.756;2022-08-19T14:13:12;13.33;;;12.03;;
6386;SDS011;3226;42.162;24.756;2022-08-19T14:15:43;12.57;;;11.47;;
6386;SDS011;3226;42.162;24.756;2022-08-19T14:18:11;11.63;;;10.60;;
6386;SDS011;3226;42.162;24.756;2022-08-19T14:20:39;11.00;;;10.10;;
6386;SDS011;3226;42.162;24.756;2022-08-19T14:23:09;12.73;;;11.43;;
6386;SDS011;3226;42.162;24.756;2022-08-19T14:25:38;12.30;;;11.37;;
6386;SDS011;3226;42.162;24.756;2022-08-19T14:28:06;12.20;;;11.20;;
6386;SDS011;3226;42.162;24.756;2022-08-19T14:30:35;11.97;;;11.17;;
6386;SDS011;3226;42.162;24.756;2022-08-19T14:33:05;13.07;;;12.13;;
6386;SDS011;3226;42.162;24.756;2022-08-19T14:35:34;13.53;;;11.97;;
6386;SDS011;3226;42.162;24.756;2022-08-19T14:38:04;12.37;;;11.43;;
6386;SDS011;3226;42.162;24.756;2022-08-19T14:40:37;12.43;;;11.40;;
6386;SDS011;3226;42.162;24.756;2022-08-19T14:43:07;11.20;;;10.10;;
6386;SDS011;3226;42.162;24.756;2022-08-19T14:45:35;13.80;;;12.87;;
6386;SDS011;3226;42.162;24.756;2022-08-19T14:48:06;14.07;;;13.07;;
6386;SDS011;3226;42.162;24.756;2022-08-19T14:50:44;13.00;;;11.80;;
6386;SDS011;3226;42.162;24.756;2022-08-19T14:53:12;12.53;;;11.53;;
6386;SDS011;3226;42.162;24.756;2022-08-19T14:55:42;11.37;;;10.43;;
6386;SDS011;3226;42.162;24.756;2022-08-19T14:58:11;13.67;;;12.23;;
6386;SDS011;3226;42.162;24.756;2022-08-19T15:00:55;11.88;;;10.98;;